Time;durP1;ratioP1;P1;durP2;ratioP2;P2;SDS_P1;SDS_P2;PMS_P1;PMS_P2;Temp;Humidity;BMP_temperature;BMP_pressure;BME280_temperature;BME280_humidity;BME280_pressure;Samples;Min_cycle;Max_cycle;Signal;HPM_P1;HPM_P2
2022/06/16 00:02:25;;;;;;;6.35;3.05;;;18.70;91.80;;;;;;6247973;28;20581;-84
2022/06/16 00:05:30;;;;;;;7.20;2.75;;;18.70;92.00;;;;;;6247236;28;20197;-84
2022/06/16 00:08:31;;;;;;;4.45;2.60;;;18.60;92.10;;;;;;6247126;28;20125;-84
2022/06/16 00:11:33;;;;;;;3.70;2.45;;;18.60;92.20;;;;;;6247061;28;20636;-83
2022/06/16 00:14:37;;;;;;;3.72;2.38;;;18.50;92.40;;;;;;6247299;28;20049;-85
2022/06/16 00:17:39;;;;;;;4.38;2.75;;;18.50;92.50;;;;;;6268267;28;20072;-85
2022/06/16 00:20:42;;;;;;;3.25;2.35;;;18.40;92.60;;;;;;6277268;28;20114;-84
2022/06/16 00:23:45;;;;;;;8.73;3.40;;;18.40;92.70;;;;;;6277019;28;20114;-84
2022/06/16 00:26:47;;;;;;;2.42;2.15;;;18.40;92.70;;;;;;6276902;28;20056;-84
2022/06/16 00:29:50;;;;;;;2.85;2.38;;;18.30;92.70;;;;;;6276261;28;20057;-84
2022/06/16 00:32:51;;;;;;;4.45;3.13;;;18.30;92.70;;;;;;6276426;28;20049;-85
2022/06/16 00:35:53;;;;;;;2.78;2.28;;;18.20;92.60;;;;;;6276336;28;20082;-83
2022/06/16 00:38:55;;;;;;;4.68;2.97;;;18.30;92.70;;;;;;6276770;28;20500;-85
2022/06/16 00:42:06;;;;;;;5.45;2.47;;;18.20;92.80;;;;;;6276015;28;20065;-84
2022/06/16 00:45:41;;;;;;;5.57;2.80;;;18.20;92.80;;;;;;6262164;28;20511;-85
2022/06/16 00:48:47;;;;;;;3.35;2.58;;;18.10;92.80;;;;;;6251072;28;20072;-84
2022/06/16 00:51:53;;;;;;;5.05;2.67;;;18.00;92.90;;;;;;6251840;28;20045;-84
2022/06/16 00:55:01;;;;;;;5.22;2.40;;;17.90;93.30;;;;;;6251608;28;20199;-84
2022/06/16 00:58:03;;;;;;;8.70;3.40;;;17.80;93.40;;;;;;6251299;28;20049;-84
2022/06/16 01:01:07;;;;;;;6.05;2.90;;;17.80;93.40;;;;;;6251658;28;20147;-84
2022/06/16 01:07:34;;;;;;;4.63;2.60;;;17.80;93.50;;;;;;6251237;28;20049;-84
2022/06/16 01:10:43;;;;;;;4.53;2.55;;;17.70;93.60;;;;;;6251439;28;20517;-84
2022/06/16 01:13:53;;;;;;;4.45;2.47;;;17.70;93.60;;;;;;6251276;28;20053;-84
2022/06/16 01:17:02;;;;;;;3.67;2.67;;;17.70;93.60;;;;;;6251128;28;20465;-83
2022/06/16 01:20:21;;;;;;;2.72;2.45;;;17.60;93.70;;;;;;6252220;28;20088;-84
2022/06/16 01:23:51;;;;;;;3.53;2.50;;;17.60;93.80;;;;;;6252699;28;20052;-84
2022/06/16 01:27:30;;;;;;;9.55;3.08;;;17.60;93.80;;;;;;6254027;28;20053;-85
2022/06/16 01:30:37;;;;;;;6.10;2.83;;;17.60;93.80;;;;;;6255623;28;20045;-85
2022/06/16 01:33:46;;;;;;;3.75;2.72;;;17.50;93.80;;;;;;6256788;28;20076;-85
2022/06/16 01:36:52;;;;;;;4.40;2.95;;;17.50;93.80;;;;;;6257259;28;20041;-85
2022/06/16 01:40:02;;;;;;;5.65;2.40;;;17.50;93.80;;;;;;6255913;28;20506;-85
2022/06/16 01:43:11;;;;;;;4.40;2.20;;;17.40;93.70;;;;;;6267928;28;20049;-84
2022/06/16 01:46:20;;;;;;;5.32;3.22;;;17.40;93.60;;;;;;6251593;28;20171;-83
2022/06/16 01:49:24;;;;;;;;;;;17.40;93.70;;;;;;6249796;28;20167;-83
2022/06/16 01:52:29;;;;;;;6.00;3.25;;;17.50;93.80;;;;;;6249512;28;20039;-83
2022/06/16 01:55:35;;;;;;;5.70;2.78;;;17.50;93.60;;;;;;6249580;28;20191;-83
2022/06/16 01:58:40;;;;;;;3.53;2.65;;;17.40;93.60;;;;;;6250031;28;20438;-85
2022/06/16 02:01:48;;;;;;;4.93;3.50;;;17.40;93.80;;;;;;6249218;28;20061;-83
2022/06/16 02:04:55;;;;;;;3.38;2.65;;;17.40;93.90;;;;;;6249462;28;20606;-83
2022/06/16 02:08:07;;;;;;;4.55;3.08;;;17.30;94.10;;;;;;6249015;28;20095;-85
2022/06/16 02:11:15;;;;;;;4.68;2.85;;;17.20;94.20;;;;;;6249644;28;20053;-84
2022/06/16 02:14:24;;;;;;;5.18;2.92;;;17.10;94.10;;;;;;6249197;28;20049;-84
2022/06/16 02:17:27;;;;;;;3.90;2.45;;;17.10;94.30;;;;;;6249333;28;20570;-85
2022/06/16 02:20:37;;;;;;;5.40;2.90;;;17.00;94.50;;;;;;6249134;28;20097;-83
2022/06/16 02:23:39;;;;;;;6.45;2.75;;;16.90;94.50;;;;;;6249930;28;20686;-84
2022/06/16 02:26:41;;;;;;;4.25;2.50;;;16.90;94.60;;;;;;6250316;28;20053;-84
2022/06/16 02:29:43;;;;;;;5.13;3.13;;;16.90;94.50;;;;;;6249760;28;20132;-83
2022/06/16 02:32:55;;;;;;;4.75;2.92;;;16.80;94.60;;;;;;6250927;28;20088;-83
2022/06/16 02:36:06;;;;;;;4.40;2.90;;;16.80;94.60;;;;;;6251783;28;20410;-85
2022/06/16 02:39:20;;;;;;;4.50;3.38;;;16.70;94.90;;;;;;6249783;28;20585;-84
2022/06/16 02:42:30;;;;;;;4.28;2.85;;;16.70;95.00;;;;;;6250234;28;20391;-85
2022/06/16 02:45:44;;;;;;;4.22;2.65;;;16.70;94.90;;;;;;6249635;28;20131;-84
2022/06/16 02:48:52;;;;;;;6.35;3.22;;;16.70;95.00;;;;;;6249959;28;20068;-85
2022/06/16 02:52:09;;;;;;;4.72;3.65;;;16.60;95.10;;;;;;6249758;28;20041;-84
2022/06/16 02:55:15;;;;;;;4.22;2.88;;;16.50;95.10;;;;;;6250679;28;20049;-85
2022/06/16 02:58:20;;;;;;;5.10;3.70;;;16.40;95.30;;;;;;6250710;28;20049;-83
2022/06/16 03:01:23;;;;;;;6.32;2.85;;;16.50;95.50;;;;;;6250227;28;20052;-85
2022/06/16 03:04:35;;;;;;;3.00;2.53;;;16.40;95.50;;;;;;6249277;28;20655;-83
2022/06/16 03:07:37;;;;;;;4.15;3.05;;;16.60;95.30;;;;;;6249658;28;20055;-84
2022/06/16 03:10:54;;;;;;;3.20;2.70;;;16.60;95.30;;;;;;6249617;28;20053;-85
2022/06/16 03:13:56;;;;;;;6.03;3.35;;;16.70;95.10;;;;;;6249072;28;20076;-83
2022/06/16 03:16:58;;;;;;;3.33;3.03;;;16.70;95.00;;;;;;6248401;28;20049;-85
2022/06/16 03:20:02;;;;;;;3.55;2.70;;;16.70;95.00;;;;;;6248177;28;20042;-84
2022/06/16 03:23:04;;;;;;;5.10;2.92;;;16.80;94.90;;;;;;6248853;28;20091;-84
2022/06/16 03:26:06;;;;;;;5.30;3.10;;;17.00;94.90;;;;;;6269407;28;20060;-85
2022/06/16 03:29:08;;;;;;;6.72;3.80;;;17.00;94.70;;;;;;6274443;28;20045;-84
2022/06/16 03:32:10;;;;;;;5.40;2.10;;;17.10;94.60;;;;;;6273285;28;20037;-86
2022/06/16 03:35:14;;;;;;;6.00;3.03;;;17.10;94.60;;;;;;6273892;28;20075;-85
2022/06/16 03:38:18;;;;;;;5.97;3.55;;;17.20;94.50;;;;;;6274094;28;20053;-85
2022/06/16 03:41:20;;;;;;;6.68;3.22;;;17.10;94.40;;;;;;6273801;28;20056;-86
2022/06/16 03:44:22;;;;;;;4.82;3.03;;;17.20;94.40;;;;;;6274133;28;20455;-85
2022/06/16 03:47:24;;;;;;;4.78;2.97;;;17.20;94.40;;;;;;6248266;28;20053;-85
2022/06/16 03:50:27;;;;;;;5.05;3.20;;;17.30;94.40;;;;;;6249870;28;20059;-85
2022/06/16 03:53:29;;;;;;;3.72;2.70;;;17.30;94.20;;;;;;6254319;28;20053;-86
2022/06/16 03:56:31;;;;;;;4.68;3.47;;;17.40;94.10;;;;;;6253091;28;20046;-86
2022/06/16 03:59:33;;;;;;;6.90;3.03;;;17.40;94.00;;;;;;6253252;28;20045;-86
2022/06/16 04:02:34;;;;;;;7.07;3.03;;;17.40;94.00;;;;;;6253971;28;20053;-85
2022/06/16 04:05:38;;;;;;;6.55;3.30;;;17.30;93.90;;;;;;6253421;28;20431;-85
2022/06/16 04:08:40;;;;;;;3.95;2.60;;;17.20;94.00;;;;;;6252398;28;20060;-85
2022/06/16 04:11:42;;;;;;;4.90;2.88;;;17.20;94.10;;;;;;6252879;28;20124;-85
2022/06/16 04:14:44;;;;;;;8.18;3.25;;;17.20;94.40;;;;;;6254237;28;20053;-86
2022/06/16 04:17:45;;;;;;;5.10;3.13;;;17.40;94.20;;;;;;6253093;28;20064;-86
2022/06/16 04:20:49;;;;;;;4.22;2.90;;;17.50;94.00;;;;;;6252250;28;20060;-85
2022/06/16 04:23:51;;;;;;;4.05;2.55;;;17.50;93.80;;;;;;6252166;28;20526;-85
2022/06/16 04:26:54;;;;;;;8.55;3.60;;;17.50;93.70;;;;;;6253843;28;20055;-86
2022/06/16 04:29:55;;;;;;;8.77;4.35;;;17.50;94.00;;;;;;6253249;28;20530;-86
2022/06/16 04:32:58;;;;;;;3.63;2.60;;;17.50;94.00;;;;;;6252398;28;20399;-85
2022/06/16 04:36:02;;;;;;;4.55;2.80;;;17.50;94.00;;;;;;6252331;28;20069;-86
2022/06/16 04:39:04;;;;;;;7.05;3.63;;;17.70;94.00;;;;;;6252613;28;20131;-85
2022/06/16 04:42:07;;;;;;;5.05;3.40;;;18.10;93.70;;;;;;6252005;28;20135;-86
2022/06/16 04:45:23;;;;;;;4.65;3.50;;;18.50;93.10;;;;;;6246197;28;20426;-85
2022/06/16 04:48:25;;;;;;;4.07;3.05;;;18.70;92.70;;;;;;6275004;28;20111;-86
2022/06/16 04:51:28;;;;;;;8.43;3.20;;;19.30;92.30;;;;;;6276792;28;20410;-85
2022/06/16 04:54:29;;;;;;;10.38;2.85;;;21.20;90.20;;;;;;6277752;28;20063;-87
2022/06/16 04:57:33;;;;;;;3.10;2.80;;;22.00;85.50;;;;;;6265609;28;20053;-85
2022/06/16 05:00:35;;;;;;;5.47;2.50;;;22.40;83.40;;;;;;6254382;28;20045;-86
2022/06/16 05:03:37;;;;;;;5.50;3.15;;;22.20;83.30;;;;;;6256379;28;20052;-87
2022/06/16 05:06:40;;;;;;;5.30;2.45;;;21.70;84.10;;;;;;6255682;28;20050;-86
2022/06/16 05:09:42;;;;;;;9.20;4.70;;;21.60;85.10;;;;;;6254826;28;20566;-85
2022/06/16 05:12:44;;;;;;;4.65;2.50;;;21.40;86.10;;;;;;6255576;28;20067;-84
2022/06/16 05:15:45;;;;;;;3.85;1.92;;;21.20;87.00;;;;;;6256456;28;20052;-85
2022/06/16 05:18:48;;;;;;;3.33;2.10;;;21.10;87.10;;;;;;6256446;28;20057;-84
2022/06/16 05:21:51;;;;;;;4.97;1.77;;;20.90;87.90;;;;;;6259630;28;20142;-85
2022/06/16 05:24:53;;;;;;;3.85;2.50;;;20.90;88.80;;;;;;6261566;28;20057;-85
2022/06/16 05:27:55;;;;;;;9.43;2.78;;;20.90;89.10;;;;;;6259550;28;20041;-84
2022/06/16 05:30:57;;;;;;;4.72;2.40;;;21.00;88.80;;;;;;6258446;28;20057;-86
2022/06/16 05:33:59;;;;;;;5.65;2.58;;;23.30;85.50;;;;;;6257666;28;20056;-86
2022/06/16 05:37:03;;;;;;;4.03;2.47;;;26.30;75.50;;;;;;6272050;28;20132;-84
2022/06/16 05:40:05;;;;;;;8.32;2.20;;;28.10;65.10;;;;;;6251354;28;20052;-85
2022/06/16 05:43:07;;;;;;;3.33;2.00;;;29.60;61.50;;;;;;6251771;28;20049;-84
2022/06/16 05:46:15;;;;;;;4.43;1.90;;;31.00;54.50;;;;;;6251623;28;20052;-84
2022/06/16 05:49:18;;;;;;;;;;;31.10;52.70;;;;;;6249390;28;20049;-84
2022/06/16 05:52:22;;;;;;;3.95;1.80;;;32.40;52.10;;;;;;6248956;28;19921;-84
2022/06/16 05:55:24;;;;;;;4.05;1.67;;;34.30;46.10;;;;;;6249638;28;20064;-84
2022/06/16 05:58:26;;;;;;;7.38;1.98;;;34.70;43.80;;;;;;6253653;28;20064;-84
2022/06/16 06:01:28;;;;;;;3.05;1.38;;;36.30;41.00;;;;;;6254908;28;20060;-84
2022/06/16 06:04:31;;;;;;;2.65;1.55;;;38.10;38.10;;;;;;6251900;28;20045;-84
2022/06/16 06:16:25;;;;;;;4.78;2.00;;;39.50;35.70;;;;;;6249888;28;20623;-84
2022/06/16 06:17:39;;;;;;;3.17;1.65;;;42.10;31.80;;;;;;6249051;28;20469;-84
2022/06/16 06:20:40;;;;;;;3.88;1.88;;;41.50;31.70;;;;;;6249269;28;20144;-85
2022/06/16 06:23:43;;;;;;;1.52;1.20;;;40.10;32.90;;;;;;6249234;28;20041;-84
2022/06/16 06:26:45;;;;;;;5.15;1.50;;;41.00;32.30;;;;;;6249165;28;20050;-85
2022/06/16 06:29:48;;;;;;;6.43;1.35;;;41.10;31.30;;;;;;6248783;28;20037;-84
2022/06/16 06:32:50;;;;;;;3.90;1.85;;;40.20;31.40;;;;;;6249415;28;20075;-84
2022/06/16 06:35:54;;;;;;;4.05;1.90;;;38.80;32.80;;;;;;6249211;28;20055;-84
2022/06/16 06:38:57;;;;;;;3.45;1.80;;;39.20;32.80;;;;;;6247785;28;20536;-85
2022/06/16 06:42:02;;;;;;;4.72;1.38;;;40.10;31.40;;;;;;6249697;28;20053;-85
2022/06/16 06:45:04;;;;;;;6.53;1.40;;;40.30;31.10;;;;;;6248329;28;20060;-84
2022/06/16 06:48:07;;;;;;;4.00;1.50;;;39.90;31.10;;;;;;6250731;28;20055;-84
2022/06/16 06:51:09;;;;;;;5.40;1.20;;;38.70;32.00;;;;;;6271079;28;20495;-84
2022/06/16 06:54:12;;;;;;;3.72;1.02;;;38.10;32.40;;;;;;6276950;28;20045;-86
2022/06/16 06:57:17;;;;;;;9.38;1.58;;;36.60;33.80;;;;;;6275625;28;20430;-85
2022/06/16 07:00:24;;;;;;;5.45;1.58;;;36.30;34.70;;;;;;6274619;28;20469;-83
2022/06/16 07:03:26;;;;;;;4.07;1.25;;;37.00;34.50;;;;;;6273652;28;20509;-85
2022/06/16 07:06:28;;;;;;;4.88;1.42;;;37.10;33.50;;;;;;6275065;28;20049;-85
2022/06/16 07:09:31;;;;;;;2.25;1.05;;;36.80;34.20;;;;;;6274666;28;20045;-85
2022/06/16 07:12:34;;;;;;;4.13;1.17;;;38.60;32.20;;;;;;6274170;28;20055;-84
2022/06/16 07:15:37;;;;;;;4.20;0.95;;;40.50;30.60;;;;;;6273964;28;20037;-84
2022/06/16 07:18:39;;;;;;;3.42;1.55;;;41.40;29.50;;;;;;6273941;28;20182;-83
2022/06/16 07:21:41;;;;;;;2.95;1.00;;;41.90;29.10;;;;;;6273165;28;20048;-83
2022/06/16 07:24:44;;;;;;;5.50;0.88;;;42.60;28.70;;;;;;6273139;28;20049;-85
2022/06/16 07:27:46;;;;;;;1.13;0.77;;;43.30;28.10;;;;;;6272460;28;20043;-83
2022/06/16 07:30:48;;;;;;;5.35;1.30;;;43.20;27.90;;;;;;6273299;28;20059;-84
2022/06/16 07:33:49;;;;;;;2.15;1.10;;;42.70;28.30;;;;;;6272685;28;20051;-84
2022/06/16 07:36:51;;;;;;;1.90;0.90;;;43.30;27.90;;;;;;6272958;28;20041;-84
2022/06/16 07:39:54;;;;;;;2.90;1.08;;;44.00;27.70;;;;;;6273087;28;20045;-83
2022/06/16 07:42:57;;;;;;;3.28;0.95;;;44.60;27.20;;;;;;6273938;28;20049;-82
2022/06/16 07:46:01;;;;;;;2.65;0.85;;;45.10;27.10;;;;;;6273129;28;20062;-82
2022/06/16 07:49:04;;;;;;;2.20;1.10;;;45.60;26.80;;;;;;6268801;28;20407;-84
2022/06/16 07:52:07;;;;;;;3.60;1.00;;;46.10;26.50;;;;;;6262954;28;20051;-82
2022/06/16 07:55:11;;;;;;;9.43;1.90;;;46.50;26.20;;;;;;6272191;28;20081;-81
2022/06/16 07:58:13;;;;;;;3.65;1.00;;;46.90;25.90;;;;;;6271987;28;20201;-82
2022/06/16 08:01:15;;;;;;;3.85;1.05;;;47.10;25.70;;;;;;6273103;28;20041;-82
2022/06/16 08:04:17;;;;;;;6.60;0.93;;;47.30;25.80;;;;;;6275640;28;20041;-81
2022/06/16 08:07:19;;;;;;;7.50;1.92;;;47.70;25.50;;;;;;6274786;28;20055;-83
2022/06/16 08:10:25;;;;;;;1.80;0.68;;;47.80;25.40;;;;;;6275413;28;20045;-82
2022/06/16 08:13:27;;;;;;;3.83;1.15;;;47.70;25.40;;;;;;6274916;28;20422;-81
2022/06/16 08:16:30;;;;;;;6.18;1.20;;;47.80;25.40;;;;;;6275318;28;20144;-81
2022/06/16 08:19:32;;;;;;;3.13;1.25;;;46.00;25.80;;;;;;6269799;28;20124;-79
2022/06/16 08:22:34;;;;;;;8.55;1.38;;;43.30;27.30;;;;;;6275143;28;20045;-81
2022/06/16 08:25:38;;;;;;;3.58;1.20;;;40.90;28.90;;;;;;6263649;28;20045;-81
2022/06/16 08:28:40;;;;;;;2.38;1.00;;;39.10;29.80;;;;;;6247030;28;20046;-81
2022/06/16 08:31:42;;;;;;;4.20;1.30;;;37.80;30.90;;;;;;6247170;28;20041;-80
2022/06/16 08:34:44;;;;;;;4.00;0.82;;;36.60;32.40;;;;;;6247968;28;20431;-79
2022/06/16 08:37:46;;;;;;;3.40;1.02;;;35.90;33.50;;;;;;6250167;28;20052;-82
2022/06/16 08:41:11;;;;;;;5.93;1.38;;;35.30;34.50;;;;;;6254401;28;20060;-83
2022/06/16 08:44:21;;;;;;;6.65;1.52;;;34.90;34.50;;;;;;6254336;28;20179;-84
2022/06/16 08:47:30;;;;;;;5.05;1.48;;;34.60;35.50;;;;;;6255282;28;20071;-82
2022/06/16 08:50:37;;;;;;;5.75;2.42;;;34.20;35.80;;;;;;6267871;28;20057;-83
2022/06/16 08:54:01;;;;;;;3.13;1.30;;;34.00;36.10;;;;;;6255364;28;20050;-81
2022/06/16 08:57:13;;;;;;;2.00;1.10;;;33.80;36.10;;;;;;6251428;28;20051;-82
2022/06/16 09:00:18;;;;;;;7.88;1.45;;;33.80;36.50;;;;;;6251687;28;20041;-83
2022/06/16 09:03:25;;;;;;;3.42;1.63;;;33.80;36.60;;;;;;6258395;28;20059;-84
2022/06/16 09:06:38;;;;;;;3.70;1.48;;;33.80;36.80;;;;;;6255969;28;20051;-83
2022/06/16 09:13:47;;;;;;;5.75;1.35;;;33.70;36.90;;;;;;6257052;28;20041;-80
2022/06/16 09:16:58;;;;;;;4.53;1.20;;;33.60;36.80;;;;;;6251389;28;20600;-80
2022/06/16 09:20:09;;;;;;;2.72;1.10;;;33.70;36.70;;;;;;6267895;28;20041;-82
2022/06/16 09:23:31;;;;;;;2.55;1.77;;;33.80;36.70;;;;;;6279245;28;20055;-81
2022/06/16 09:26:38;;;;;;;7.10;1.25;;;33.90;36.80;;;;;;6278833;28;20041;-81
2022/06/16 09:29:45;;;;;;;;;;;33.80;36.40;;;;;;6283031;28;20419;-79
2022/06/16 09:32:51;;;;;;;6.13;1.35;;;33.70;36.30;;;;;;6280994;28;20390;-80
2022/06/16 09:35:58;;;;;;;2.42;0.90;;;33.60;36.20;;;;;;6277105;28;20407;-80
2022/06/16 09:39:05;;;;;;;3.30;1.25;;;33.60;36.70;;;;;;6276713;28;20133;-82
2022/06/16 09:45:36;;;;;;;10.50;1.15;;;33.30;37.20;;;;;;6274850;28;20127;-82
2022/06/16 09:48:42;;;;;;;2.87;1.00;;;33.50;37.40;;;;;;6275914;28;20045;-83
2022/06/16 09:51:49;;;;;;;7.53;1.40;;;33.60;36.20;;;;;;6274281;28;20052;-82
2022/06/16 09:54:55;;;;;;;8.32;1.38;;;33.60;36.30;;;;;;6272345;28;20312;-80
2022/06/16 09:58:02;;;;;;;5.10;1.40;;;33.50;36.20;;;;;;6273963;28;20052;-82
2022/06/16 10:01:10;;;;;;;2.10;0.80;;;33.30;36.60;;;;;;6275219;28;20041;-83
2022/06/16 10:04:13;;;;;;;5.63;1.20;;;33.50;36.50;;;;;;6275108;28;20059;-78
2022/06/16 10:07:19;;;;;;;1.67;0.90;;;33.70;36.00;;;;;;6275744;28;20045;-82
2022/06/16 10:10:28;;;;;;;8.60;1.33;;;34.10;36.10;;;;;;6275564;28;20048;-80
2022/06/16 10:13:37;;;;;;;6.00;1.20;;;35.10;35.10;;;;;;6275940;28;20045;-83
2022/06/16 10:16:49;;;;;;;3.70;0.95;;;36.40;33.30;;;;;;6275494;28;20037;-82
2022/06/16 10:19:52;;;;;;;4.45;1.35;;;37.00;32.30;;;;;;6275331;28;20059;-82
2022/06/16 10:22:59;;;;;;;3.88;1.00;;;37.00;31.80;;;;;;6275289;28;20049;-81
2022/06/16 10:26:04;;;;;;;;;;;36.70;32.20;;;;;;6281996;28;20049;-81
2022/06/16 10:29:13;;;;;;;5.80;1.27;;;36.40;32.80;;;;;;6281318;28;19920;-81
2022/06/16 10:32:19;;;;;;;4.75;1.10;;;36.00;33.20;;;;;;6279922;28;20045;-82
2022/06/16 10:35:22;;;;;;;5.53;1.75;;;35.90;33.30;;;;;;6278621;28;20166;-81
2022/06/16 10:38:32;;;;;;;5.47;1.05;;;35.80;33.40;;;;;;6279180;28;20045;-82
2022/06/16 10:41:40;;;;;;;15.88;1.42;;;35.60;33.30;;;;;;6278070;28;20485;-81
2022/06/16 10:44:50;;;;;;;2.92;1.02;;;35.50;33.50;;;;;;6278062;28;20045;-81
2022/06/16 10:48:00;;;;;;;7.10;1.05;;;35.30;33.70;;;;;;6277580;28;20040;-81
2022/06/16 10:51:11;;;;;;;4.47;1.08;;;35.30;33.70;;;;;;6278937;28;20047;-82
2022/06/16 10:54:15;;;;;;;3.13;1.02;;;35.40;33.20;;;;;;6257873;28;20049;-82
2022/06/16 10:57:20;;;;;;;8.07;1.98;;;35.30;33.20;;;;;;6253383;28;20046;-81
2022/06/16 11:00:24;;;;;;;2.40;0.82;;;35.20;33.10;;;;;;6254570;28;20140;-81
2022/06/16 11:03:27;;;;;;;8.02;1.33;;;35.30;33.50;;;;;;6254912;28;20054;-81
2022/06/16 11:06:29;;;;;;;3.88;1.10;;;35.60;33.20;;;;;;6255308;28;20422;-81
2022/06/16 11:09:34;;;;;;;2.63;0.95;;;35.90;32.90;;;;;;6254214;28;20045;-82
2022/06/16 11:12:39;;;;;;;5.90;1.27;;;36.00;32.90;;;;;;6256130;28;20045;-81
2022/06/16 11:15:47;;;;;;;3.10;0.90;;;36.20;32.80;;;;;;6255288;28;20410;-81
2022/06/16 11:18:53;;;;;;;2.17;0.80;;;36.50;32.70;;;;;;6272893;28;20033;-81
2022/06/16 11:21:56;;;;;;;1.17;0.80;;;36.70;32.90;;;;;;6279687;28;20552;-83
2022/06/16 11:25:05;;;;;;;5.18;1.15;;;37.00;32.40;;;;;;6275754;28;20044;-82
2022/06/16 11:28:14;;;;;;;4.32;0.98;;;37.40;32.30;;;;;;6280634;28;20041;-83
2022/06/16 11:31:18;;;;;;;2.92;1.00;;;37.60;31.90;;;;;;6282464;28;20055;-82
2022/06/16 11:34:24;;;;;;;4.20;0.93;;;37.50;31.80;;;;;;6282325;28;20419;-82
2022/06/16 11:37:40;;;;;;;5.75;0.90;;;37.60;31.50;;;;;;6281649;28;20052;-82
2022/06/16 11:40:48;;;;;;;6.82;1.10;;;37.70;31.30;;;;;;6280426;28;20106;-83
2022/06/16 11:44:03;;;;;;;5.13;0.70;;;37.80;31.40;;;;;;6279484;28;20060;-82
2022/06/16 11:47:19;;;;;;;10.75;2.30;;;37.80;31.60;;;;;;6278900;28;20045;-82
2022/06/16 11:50:34;;;;;;;5.80;0.93;;;38.00;31.30;;;;;;6275671;28;20047;-81
2022/06/16 11:53:52;;;;;;;4.28;1.17;;;38.10;31.00;;;;;;6279049;28;20056;-81
2022/06/16 11:56:59;;;;;;;3.15;1.05;;;38.10;31.00;;;;;;6261925;28;20045;-81
2022/06/16 12:00:18;;;;;;;4.43;1.30;;;38.10;31.20;;;;;;6256144;28;20650;-82
2022/06/16 12:03:33;;;;;;;4.57;1.10;;;38.40;30.90;;;;;;6254173;28;20085;-81
2022/06/16 12:06:52;;;;;;;3.70;1.20;;;38.50;30.50;;;;;;6253614;28;20057;-82
2022/06/16 12:10:02;;;;;;;1.50;0.82;;;38.40;30.70;;;;;;6252156;28;20052;-81
2022/06/16 12:13:13;;;;;;;1.80;1.00;;;38.50;30.50;;;;;;6254842;28;20049;-83
2022/06/16 12:16:23;;;;;;;1.52;0.98;;;38.50;30.50;;;;;;6256494;28;20059;-81
2022/06/16 12:19:35;;;;;;;2.00;1.05;;;38.50;30.80;;;;;;6276491;28;20051;-82
2022/06/16 12:22:45;;;;;;;2.35;0.98;;;38.50;30.30;;;;;;6282691;28;20056;-81
2022/06/16 12:25:56;;;;;;;4.10;1.20;;;38.50;30.20;;;;;;6258523;28;20064;-84
2022/06/16 12:29:09;;;;;;;6.88;1.77;;;38.60;30.30;;;;;;6252259;28;20434;-83
2022/06/16 12:32:24;;;;;;;4.43;0.98;;;38.50;31.00;;;;;;6253273;28;20041;-84
2022/06/16 12:35:33;;;;;;;3.53;1.00;;;38.40;30.90;;;;;;6256727;28;20415;-84
2022/06/16 12:38:42;;;;;;;4.78;1.13;;;38.50;30.80;;;;;;6255859;28;20050;-83
2022/06/16 12:41:49;;;;;;;2.20;0.82;;;38.30;30.90;;;;;;6253215;28;20069;-83
2022/06/16 12:44:55;;;;;;;2.88;1.40;;;38.00;31.10;;;;;;6254516;28;20111;-82
2022/06/16 12:48:02;;;;;;;2.83;1.00;;;37.80;31.30;;;;;;6267068;28;20397;-83
2022/06/16 12:51:07;;;;;;;6.38;1.25;;;37.80;31.50;;;;;;6281695;28;20049;-83
2022/06/16 12:54:14;;;;;;;1.98;0.98;;;37.80;31.80;;;;;;6279110;28;20041;-84
2022/06/16 12:57:20;;;;;;;4.75;0.80;;;37.90;31.40;;;;;;6277134;28;20049;-85
2022/06/16 13:00:26;;;;;;;2.30;0.80;;;37.90;31.90;;;;;;6274274;28;20053;-86
2022/06/16 13:03:35;;;;;;;3.70;0.88;;;38.10;31.40;;;;;;6276001;28;20105;-84
2022/06/16 13:06:38;;;;;;;2.42;1.20;;;38.10;31.80;;;;;;6276676;28;20113;-86
2022/06/16 13:09:42;;;;;;;2.58;0.80;;;37.70;31.60;;;;;;6278868;28;20059;-83
2022/06/16 13:12:51;;;;;;;4.65;1.42;;;36.90;32.70;;;;;;6281601;28;20045;-84
2022/06/16 13:15:55;;;;;;;9.55;1.70;;;36.40;33.20;;;;;;6281401;28;20036;-85
2022/06/16 13:18:59;;;;;;;3.78;1.25;;;36.30;33.80;;;;;;6269113;28;20410;-85
2022/06/16 13:22:04;;;;;;;4.13;1.10;;;36.40;33.40;;;;;;6275021;28;20053;-85
2022/06/16 13:25:14;;;;;;;3.22;1.00;;;36.00;33.90;;;;;;6279843;28;20040;-84
2022/06/16 13:28:24;;;;;;;4.25;1.60;;;35.50;34.30;;;;;;6282727;28;20056;-83
2022/06/16 13:31:29;;;;;;;2.70;1.48;;;35.00;34.90;;;;;;6285546;28;20059;-83
2022/06/16 13:34:52;;;;;;;2.78;1.05;;;35.00;35.10;;;;;;6293740;28;20052;-82
2022/06/16 13:38:21;;;;;;;6.75;2.00;;;35.40;34.70;;;;;;6278768;28;20140;-82
2022/06/16 13:41:46;;;;;;;4.55;1.58;;;35.90;33.70;;;;;;6278274;28;20059;-83
2022/06/16 13:45:37;;;;;;;3.47;1.30;;;36.10;33.30;;;;;;6278543;28;20047;-85
2022/06/16 13:48:50;;;;;;;4.82;1.50;;;36.30;32.20;;;;;;6276496;28;20045;-85
2022/06/16 13:51:53;;;;;;;2.03;0.88;;;36.60;31.30;;;;;;6279926;28;20521;-84
2022/06/16 13:55:15;;;;;;;5.47;0.90;;;36.80;31.30;;;;;;6279495;28;20049;-83
2022/06/16 13:58:25;;;;;;;3.85;1.33;;;37.10;29.10;;;;;;6270707;28;20163;-84
2022/06/16 14:01:28;;;;;;;3.40;0.95;;;37.40;30.30;;;;;;6279448;28;20048;-85
2022/06/16 14:04:30;;;;;;;3.15;0.90;;;37.70;31.80;;;;;;6277638;28;20053;-83
2022/06/16 14:07:35;;;;;;;1.45;0.70;;;37.80;29.80;;;;;;6274858;28;20170;-85
2022/06/16 14:10:47;;;;;;;3.22;0.80;;;37.90;29.40;;;;;;6275766;28;20053;-86
2022/06/16 14:14:10;;;;;;;3.28;1.25;;;37.90;29.70;;;;;;6273944;28;20057;-85
2022/06/16 14:17:28;;;;;;;1.38;0.70;;;38.00;29.50;;;;;;6277063;28;20052;-84
2022/06/16 14:20:35;;;;;;;5.53;1.52;;;38.30;28.40;;;;;;6274994;28;20056;-84
2022/06/16 14:23:42;;;;;;;5.65;1.13;;;38.50;28.60;;;;;;6276388;28;20049;-83
2022/06/16 14:26:45;;;;;;;2.30;0.90;;;38.70;28.10;;;;;;6279134;28;20059;-85
2022/06/16 14:29:49;;;;;;;3.92;0.80;;;38.40;28.20;;;;;;6277916;28;20059;-84
2022/06/16 14:32:55;;;;;;;1.50;0.82;;;38.00;28.70;;;;;;6278317;28;20051;-84
2022/06/16 14:36:03;;;;;;;4.05;0.93;;;37.80;29.20;;;;;;6278562;28;20041;-84
2022/06/16 14:39:11;;;;;;;3.47;0.60;;;37.70;28.40;;;;;;6278163;28;20052;-84
2022/06/16 14:42:17;;;;;;;2.70;0.70;;;37.70;28.40;;;;;;6279036;28;20048;-84
2022/06/16 14:45:30;;;;;;;1.83;0.82;;;37.20;28.70;;;;;;6279169;28;20438;-84
2022/06/16 14:48:35;;;;;;;3.10;0.90;;;36.90;28.70;;;;;;6276699;28;20052;-83
2022/06/16 14:51:41;;;;;;;3.42;0.80;;;36.60;28.90;;;;;;6278444;28;20047;-84
2022/06/16 14:54:48;;;;;;;2.08;0.95;;;36.70;28.90;;;;;;6277155;28;20421;-83
2022/06/16 14:57:51;;;;;;;3.80;0.52;;;36.70;28.80;;;;;;6273103;28;20514;-82
2022/06/16 15:00:58;;;;;;;4.60;0.93;;;36.90;28.40;;;;;;6252451;28;20045;-84
2022/06/16 15:04:04;;;;;;;4.70;1.10;;;37.00;28.20;;;;;;6252835;28;20053;-84
2022/06/16 15:07:06;;;;;;;3.33;0.93;;;37.00;28.30;;;;;;6254099;28;20068;-82
2022/06/16 15:10:10;;;;;;;2.35;0.70;;;36.80;28.20;;;;;;6251730;28;20079;-82
2022/06/16 15:13:12;;;;;;;4.75;1.20;;;36.60;28.40;;;;;;6252585;28;20067;-84
2022/06/16 15:19:41;;;;;;;3.60;0.52;;;36.90;28.00;;;;;;6264289;28;20105;-83
2022/06/16 15:22:47;;;;;;;8.15;1.02;;;37.00;27.70;;;;;;6280705;28;20052;-81
2022/06/16 15:25:52;;;;;;;2.90;0.80;;;37.10;27.40;;;;;;6280250;28;20055;-81
2022/06/16 15:28:59;;;;;;;1.50;0.40;;;37.00;27.40;;;;;;6282071;28;20037;-81
2022/06/16 15:32:02;;;;;;;3.70;1.48;;;37.20;27.10;;;;;;6283087;28;20127;-82
2022/06/16 15:38:40;;;;;;;6.07;0.80;;;36.60;27.20;;;;;;6281491;28;20037;-83
2022/06/16 15:41:43;;;;;;;1.95;0.82;;;36.20;27.40;;;;;;6281874;28;20139;-81
2022/06/16 15:44:51;;;;;;;3.70;0.75;;;35.90;27.70;;;;;;6281011;28;20053;-82
2022/06/16 15:47:55;;;;;;;1.95;0.65;;;35.80;27.70;;;;;;6289032;28;20051;-84
2022/06/16 15:51:03;;;;;;;3.70;0.90;;;35.90;27.90;;;;;;6289569;28;20049;-82
2022/06/16 15:54:05;;;;;;;2.60;0.80;;;36.10;27.80;;;;;;6289886;28;20057;-81
2022/06/16 15:57:08;;;;;;;2.92;0.80;;;36.30;27.20;;;;;;6281425;28;20055;-82
2022/06/16 16:00:13;;;;;;;2.47;0.50;;;36.10;26.80;;;;;;6280008;28;20061;-83
2022/06/16 16:03:22;;;;;;;7.00;1.33;;;36.10;26.90;;;;;;6286659;28;20059;-84
2022/06/16 16:06:23;;;;;;;2.47;0.70;;;36.00;26.90;;;;;;6288197;28;20191;-81
2022/06/16 16:09:26;;;;;;;2.35;0.60;;;35.90;26.70;;;;;;6289410;28;20045;-82
2022/06/16 16:12:31;;;;;;;5.47;1.02;;;35.70;26.90;;;;;;6292516;28;20056;-82
2022/06/16 16:15:35;;;;;;;3.78;0.40;;;35.60;26.90;;;;;;6291658;28;20048;-82
2022/06/16 16:18:39;;;;;;;6.20;1.13;;;35.50;26.90;;;;;;6282291;28;20047;-83
2022/06/16 16:21:45;;;;;;;1.85;0.50;;;35.30;27.20;;;;;;6290940;28;20414;-82
2022/06/16 16:24:46;;;;;;;0.85;0.50;;;35.30;27.20;;;;;;6288119;28;20111;-83
2022/06/16 16:27:51;;;;;;;1.42;0.47;;;35.30;26.90;;;;;;6286902;28;20041;-83
2022/06/16 16:30:56;;;;;;;3.42;0.80;;;35.30;26.70;;;;;;6287331;28;20457;-83
2022/06/16 16:34:02;;;;;;;6.38;0.68;;;34.90;26.30;;;;;;6287686;28;20119;-84
2022/06/16 16:37:10;;;;;;;1.60;0.65;;;34.70;26.70;;;;;;6286235;28;20060;-80